Flight Track Log - Related Links

Times and Time Zones

All times are in EST time to prevent confusion due to time zone crossing. See the N682RW flight status page for this flight to view local times or setup timezone preferences in your user account.

Time Position Orientation Groundspeed Altitude Reporting Facility
EST Latitude Longitude Course Direction KTS MPH feet Rate Location/Type
Sun 03:32:36 AM 40.8167 -96.7567 215° Southwest 199 229 1,900  Level Minneapolis Center
Sun 03:33:06 AM 40.7997 -96.7722 235° Southwest 204 235 3,000 2,667 Climbing Minneapolis Center
Sun 03:34:06 AM 40.7664 -96.8361 251° West 204 235 5,900 14,500 Climbing Minneapolis Center
Sun 03:35:06 AM 40.7450 -96.9197 261° West 210 242 32,000 2,350 Climbing Minneapolis Center
Sun 03:36:06 AM 40.7336 -97.0175 263° West 249 287 10,600 -9,500 Descending Minneapolis Center
Sun 03:37:06 AM 40.7236 -97.1292 260° West 285 328 13,000 2,200 Climbing Minneapolis Center
Sun 03:38:06 AM 40.7097 -97.2322 267° West 304 350 15,000 2,300 Climbing Minneapolis Center
Sun 03:39:06 AM 40.7056 -97.3522 267° West 324 373 17,600 2,550 Climbing Minneapolis Center
Sun 03:40:06 AM 40.7008 -97.4775 265° West 337 388 20,100 2,350 Climbing Minneapolis Center
Sun 03:41:06 AM 40.6917 -97.6108 262° West 357 411 22,300 1,900 Climbing Minneapolis Center
Sun 03:42:06 AM 40.6783 -97.7411 258° West 362 417 23,900 1,650 Climbing Minneapolis Center
Sun 03:43:06 AM 40.6561 -97.8764 254° West 368 423 25,600 1,750 Climbing Minneapolis Center
Sun 03:44:06 AM 40.6281 -98.0053 252° West 373 429 27,400 1,800 Climbing Minneapolis Center
Sun 03:46:26 AM 40.5567 -98.2947 254° West 344 396 31,600 1,380 Climbing Denver Center
Sun 03:47:26 AM 40.5314 -98.4100 252° West 337 388 32,000 200 Climbing Denver Center
Sun 03:48:26 AM 40.5022 -98.5311 253° West 337 388 32,000  Level Denver Center
Sun 03:49:26 AM 40.4747 -98.6492 251° West 342 394 32,000  Level Denver Center
Sun 03:50:26 AM 40.4450 -98.7647 252° West 342 394 32,000  Level Denver Center
Sun 03:51:26 AM 40.4172 -98.8772 252° West 335 386 32,000  Level Denver Center
Sun 03:52:26 AM 40.3872 -98.9950 251° West 335 386 32,000  Level Denver Center
Sun 03:53:26 AM 40.3639 -99.0850 253° West 335 386 32,000 350 Level Denver Center
Sun 03:54:26 AM 40.3361 -99.2053 251° West 335 386 32,700 550 Climbing Denver Center
Sun 03:55:26 AM 40.3058 -99.3203 252° West 335 386 33,100 550 Climbing Denver Center
Sun 03:56:26 AM 40.2792 -99.4294 252° West 335 386 33,800 450 Climbing Denver Center
Sun 03:57:26 AM 40.2522 -99.5386 252° West 325 374 34,000 100 Climbing Denver Center
Sun 03:58:26 AM 40.2256 -99.6475 251° West 325 374 34,000  Level Denver Center
Sun 03:59:26 AM 40.1964 -99.7564 251° West 325 374 34,000  Level Denver Center
Sun 04:00:26 AM 40.1675 -99.8681 253° West 325 374 34,000  Level Denver Center
Sun 04:01:26 AM 40.1422 -99.9739 251° West 315 362 34,000  Level Denver Center
Sun 04:02:26 AM 40.1114 -100.0940 251° West 315 362 34,000  Level Denver Center
Sun 04:03:26 AM 40.0819 -100.2050 252° West 315 362 34,000  Level Denver Center
Sun 04:04:26 AM 40.0544 -100.3140 251° West 315 362 34,000  Level Denver Center
Sun 04:05:26 AM 40.0283 -100.4140 250° West 315 362 34,000  Level Denver Center
Sun 04:06:26 AM 39.9950 -100.5330 252° West 315 362 34,000  Level Denver Center
Sun 04:07:26 AM 39.9672 -100.6440 251° West 315 362 34,000  Level Denver Center
Sun 04:08:26 AM 39.9375 -100.7550 250° West 315 362 34,000  Level Denver Center
Sun 04:09:26 AM 39.9108 -100.8520 251° West 320 368 34,000  Level Denver Center
Sun 04:10:26 AM 39.8792 -100.9740 250° West 320 368 34,000  Level Denver Center
Sun 04:11:26 AM 39.8492 -101.0840 249° West 325 374 34,000  Level Denver Center
Sun 04:12:26 AM 39.8167 -101.1920 251° West 325 374 34,000  Level Denver Center
Sun 04:13:26 AM 39.7900 -101.2950 251° West 330 380 34,000  Level Denver Center
Sun 04:14:26 AM 39.7578 -101.4160 249° West 330 380 34,000  Level Denver Center
Sun 04:15:26 AM 39.7269 -101.5210 251° West 330 380 34,000  Level Denver Center
Sun 04:16:26 AM 39.6981 -101.6310 249° West 325 374 34,000  Level Denver Center
Sun 04:17:26 AM 39.6689 -101.7280 251° West 325 374 34,000  Level Denver Center
Sun 04:18:26 AM 39.6381 -101.8430 249° West 314 361 34,000  Level Denver Center
Sun 04:19:26 AM 39.6069 -101.9500 251° West 314 361 34,000  Level Denver Center
Sun 04:20:26 AM 39.5778 -102.0600 250° West 314 361 34,000  Level Denver Center
Sun 04:21:26 AM 39.5503 -102.1560 249° West 314 361 34,000  Level Denver Center
Sun 04:22:26 AM 39.5169 -102.2710 254° West 314 361 34,000  Level Denver Center
Sun 04:23:26 AM 39.4936 -102.3750 250° West 319 367 34,000  Level Denver Center
Sun 04:24:26 AM 39.4583 -102.4980 250° West 334 384 34,000  Level Denver Center
Sun 04:25:26 AM 39.4286 -102.6040 248° West 328 377 34,000  Level Denver Center
Sun 04:26:26 AM 39.3947 -102.7140 250° West 328 377 34,000  Level Denver Center
Sun 04:27:26 AM 39.3647 -102.8230 250° West 328 377 34,000  Level Denver Center
Sun 04:28:26 AM 39.3347 -102.9320 249° West 334 384 34,000  Level Denver Center
Sun 04:29:26 AM 39.3028 -103.0410 249° West 334 384 34,000  Level Denver Center
Sun 04:30:26 AM 39.2686 -103.1560 249° West 334 384 34,000  Level Denver Center
Sun 04:31:26 AM 39.2342 -103.2720 249° West 340 391 34,000  Level Denver Center
Sun 04:32:26 AM 39.2000 -103.3860 252° West 345 397 34,000  Level Denver Center
Sun 04:33:26 AM 39.1736 -103.4920 250° West 345 397 34,000  Level Denver Center
Sun 04:34:26 AM 39.1411 -103.6090 250° West 351 404 34,000  Level Denver Center
Sun 04:35:26 AM 39.1083 -103.7280 249° West 351 404 34,000  Level Denver Center
Sun 04:36:26 AM 39.0736 -103.8470 250° West 351 404 34,000  Level Denver Center
Sun 04:37:26 AM 39.0408 -103.9660 251° West 351 404 34,000  Level Denver Center
Sun 04:38:26 AM 39.0061 -104.0980 251° West 351 404 34,000  Level Denver Center
Sun 04:39:26 AM 38.9731 -104.2190 250° West 351 404 34,000  Level Denver Center
Sun 04:40:26 AM 38.9381 -104.3430 251° West 361 415 34,000  Level Denver Center
Sun 04:41:26 AM 38.9047 -104.4640 251° West 361 415 34,000 -50 Level Denver Center
Sun 04:42:26 AM 38.8714 -104.5880 250° West 372 428 33,900  Descending Denver Center
Sun 04:43:26 AM 38.8358 -104.7110 251° West 372 428 34,000  Climbing Denver Center
Sun 04:44:26 AM 38.8022 -104.8350 249° West 372 428 33,900  Descending Denver Center
Sun 04:45:26 AM 38.7683 -104.9470 250° West 372 428 34,000 50 Climbing Denver Center
Sun 04:46:26 AM 38.7325 -105.0730 250° West 377 434 34,000  Level Denver Center
Sun 04:47:26 AM 38.6983 -105.1960 249° West 377 434 34,000  Level Denver Center
Sun 04:48:26 AM 38.6622 -105.3190 250° West 371 427 34,000  Level Denver Center
Sun 04:49:26 AM 38.6278 -105.4420 249° West 371 427 34,000  Level Denver Center
Sun 04:50:26 AM 38.5894 -105.5730 250° West 371 427 34,000  Level Denver Center
Sun 04:51:26 AM 38.5528 -105.6980 250° West 378 435 34,000  Level Denver Center
Sun 04:52:26 AM 38.5181 -105.8180 252° West 371 427 34,000  Level Denver Center
Sun 04:53:26 AM 38.4853 -105.9430 249° West 385 443 34,000  Level Denver Center
Sun 04:54:26 AM 38.4503 -106.0590 250° West 373 429 34,000  Level Denver Center
Sun 04:55:26 AM 38.4194 -106.1660 249° West 361 415 34,000  Level Denver Center
Sun 04:56:26 AM 38.3842 -106.2850 250° West 361 415 34,000  Level Denver Center
Sun 04:57:26 AM 38.3469 -106.4150 250° West 355 409 34,000  Level Denver Center
Sun 04:58:26 AM 38.3136 -106.5290 249° West 349 402 34,000  Level Denver Center
Sun 04:59:26 AM 38.2778 -106.6450 249° West 349 402 34,000  Level Denver Center
Sun 05:00:26 AM 38.2464 -106.7510 249° West 348 400 34,000  Level Denver Center
Sun 05:01:26 AM 38.2128 -106.8640 248° West 353 406 34,000  Level Denver Center
Sun 05:02:26 AM 38.1725 -106.9910 249° West 353 406 34,000  Level Denver Center
Sun 05:03:26 AM 38.1386 -107.1060 249° West 353 406 34,000  Level Denver Center
Sun 05:04:26 AM 38.1047 -107.2190 245° Southwest 348 400 34,000  Level Denver Center
Sun 05:05:26 AM 38.0642 -107.3270 250° West 343 395 34,000  Level Denver Center
Sun 05:06:26 AM 38.0300 -107.4450 252° West 350 403 34,000  Level Denver Center
Sun 05:07:26 AM 38.0019 -107.5560 246° West 354 407 34,000  Level Denver Center
Sun 05:08:26 AM 37.9589 -107.6790 249° West 354 407 34,000  Level Denver Center
Sun 05:09:26 AM 37.9242 -107.7960 248° West 354 407 34,000  Level Denver Center
Sun 05:10:26 AM 37.8875 -107.9090 251° West 354 407 34,000  Level Denver Center
Sun 05:11:26 AM 37.8567 -108.0190 249° West 354 407 34,000  Level Denver Center
Sun 05:12:26 AM 37.8175 -108.1470 246° West 354 407 34,000  Level Denver Center
Sun 05:13:26 AM 37.7783 -108.2590 247° West 354 407 34,000  Level Denver Center
Sun 05:14:26 AM 37.7408 -108.3730 250° West 354 407 34,000 -400 Level Denver Center
Sun 05:15:26 AM 37.7100 -108.4770 249° West 349 402 33,200  Descending Denver Center
Sun 05:16:26 AM 37.6700 -108.6070 246° West 354 407 34,000 400 Climbing Denver Center
Sun 05:17:26 AM 37.6303 -108.7210 248° West 354 407 34,000  Level Denver Center
Sun 05:18:26 AM 37.5969 -108.8250 249° West 354 407 34,000  Level Denver Center
Sun 05:19:26 AM 37.5633 -108.9370 247° West 354 407 34,000  Level Denver Center
Sun 05:20:26 AM 37.5186 -109.0690 247° West 354 407 34,000  Level Denver Center
Sun 05:21:26 AM 37.4806 -109.1800 248° West 354 407 34,000  Level Denver Center
Sun 05:22:26 AM 37.4469 -109.2860 248° West 354 407 34,000  Level Denver Center
Sun 05:23:26 AM 37.4083 -109.4040 247° West 366 421 34,000  Level Denver Center
Sun 05:24:26 AM 37.3653 -109.5330 247° West 366 421 34,000  Level Denver Center
Sun 05:25:26 AM 37.3244 -109.6540 248° West 372 428 34,000  Level Denver Center
Sun 05:26:26 AM 37.2903 -109.7620 247° West 372 428 34,000  Level Denver Center
Sun 05:27:26 AM 37.2444 -109.8960 247° West 372 428 34,000  Level Denver Center
Sun 05:28:26 AM 37.2033 -110.0190 247° West 377 434 34,000  Level Denver Center
Sun 05:29:26 AM 37.1617 -110.1420 246° West 384 442 34,000  Level Denver Center
Sun 05:30:26 AM 37.1183 -110.2620 247° West 384 442 34,000  Level Denver Center
Sun 05:31:26 AM 37.0744 -110.3890 247° West 389 448 34,000  Level Denver Center
Sun 05:32:26 AM 37.0325 -110.5150 246° West 394 453 34,000  Level Denver Center
Sun 05:33:26 AM 36.9881 -110.6420 247° West 394 453 34,000  Level Denver Center
Sun 05:34:26 AM 36.9439 -110.7690 245° Southwest 399 459 34,000  Level Denver Center
Sun 05:35:26 AM 36.9019 -110.8840 248° West 399 459 34,000  Level Denver Center
Sun 05:37:03 AM 36.8342 -111.0940 245° Southwest 402 463 34,000  Level Los Angeles Center
Sun 05:38:03 AM 36.7872 -111.2210 244° Southwest 402 463 34,000  Level Los Angeles Center
Sun 05:39:03 AM 36.7361 -111.3490 242° Southwest 408 470 34,000  Level Los Angeles Center
Sun 05:40:03 AM 36.6806 -111.4790 242° Southwest 418 481 34,000  Level Los Angeles Center
Sun 05:41:03 AM 36.6250 -111.6070 243° Southwest 424 488 34,000  Level Los Angeles Center
Sun 05:42:03 AM 36.5656 -111.7500 243° Southwest 424 488 34,000  Level Los Angeles Center
Sun 05:43:03 AM 36.5136 -111.8760 243° Southwest 424 488 34,000  Level Los Angeles Center
Sun 05:44:03 AM 36.4617 -112.0010 241° Southwest 424 488 34,000  Level Los Angeles Center
Sun 05:45:03 AM 36.4053 -112.1250 242° Southwest 424 488 34,000  Level Los Angeles Center
Sun 05:46:03 AM 36.3508 -112.2540 242° Southwest 424 488 34,000  Level Los Angeles Center
Sun 05:47:03 AM 36.3022 -112.3670 241° Southwest 424 488 34,000  Level Los Angeles Center
Sun 05:48:03 AM 36.2456 -112.4930 243° Southwest 424 488 34,000  Level Los Angeles Center
Sun 05:49:03 AM 36.1931 -112.6220 240° Southwest 424 488 34,000  Level Los Angeles Center
Sun 05:50:03 AM 36.1361 -112.7450 243° Southwest 424 488 34,000  Level Los Angeles Center
Sun 05:51:03 AM 36.0811 -112.8760 241° Southwest 424 488 34,000  Level Los Angeles Center
Sun 05:52:03 AM 36.0200 -113.0120 242° Southwest 424 488 34,000  Level Los Angeles Center
Sun 05:53:03 AM 35.9650 -113.1400 241° Southwest 424 488 34,000  Level Los Angeles Center
Sun 05:54:03 AM 35.9114 -113.2590 241° Southwest 432 497 34,000  Level Los Angeles Center
Sun 05:55:03 AM 35.8558 -113.3840 242° Southwest 432 497 34,000  Level Los Angeles Center
Sun 05:56:03 AM 35.8003 -113.5140 240° Southwest 432 497 34,000  Level Los Angeles Center
Sun 05:57:03 AM 35.7425 -113.6390 241° Southwest 427 491 34,000  Level Los Angeles Center
Sun 05:58:03 AM 35.6844 -113.7690 242° Southwest 427 491 34,000  Level Los Angeles Center
Sun 05:59:03 AM 35.6264 -113.9010 241° Southwest 427 491 34,000  Level Los Angeles Center
Sun 06:00:03 AM 35.5681 -114.0300 241° Southwest 433 498 34,000  Level Los Angeles Center
Sun 06:01:03 AM 35.5097 -114.1590 240° Southwest 433 498 34,000  Level Los Angeles Center
Sun 06:02:03 AM 35.4511 -114.2830 240° Southwest 433 498 34,000  Level Los Angeles Center
Sun 06:03:03 AM 35.3906 -114.4140 240° Southwest 433 498 34,000  Level Los Angeles Center
Sun 06:04:03 AM 35.3297 -114.5430 241° Southwest 433 498 34,000  Level Los Angeles Center
Sun 06:05:03 AM 35.2728 -114.6710 240° Southwest 438 504 34,000  Level Los Angeles Center
Sun 06:06:03 AM 35.2097 -114.8040 241° Southwest 438 504 34,000  Level Los Angeles Center
Sun 06:07:03 AM 35.1506 -114.9330 241° Southwest 438 504 34,000  Level Los Angeles Center
Sun 06:08:03 AM 35.0911 -115.0630 240° Southwest 443 510 34,000  Level Los Angeles Center
Sun 06:09:03 AM 35.0297 -115.1930 239° Southwest 443 510 34,000  Level Los Angeles Center
Sun 06:10:03 AM 34.9658 -115.3250 241° Southwest 448 516 34,000  Level Los Angeles Center
Sun 06:11:03 AM 34.9000 -115.4680 239° Southwest 448 516 34,000  Level Los Angeles Center
Sun 06:12:03 AM 34.8400 -115.5900 240° Southwest 453 521 34,000  Level Los Angeles Center
Sun 06:13:03 AM 34.7778 -115.7190 239° Southwest 453 521 34,000  Level Los Angeles Center
Sun 06:14:03 AM 34.7114 -115.8510 241° Southwest 453 521 34,000 -700 Level Los Angeles Center
Sun 06:15:03 AM 34.6511 -115.9820 241° Southwest 453 521 32,600 -1,500 Descending Los Angeles Center
Sun 06:16:03 AM 34.5864 -116.1210 240° Southwest 460 529 31,000 -1,900 Descending Los Angeles Center
Sun 06:17:03 AM 34.5239 -116.2500 240° Southwest 460 529 28,800 -2,100 Descending Los Angeles Center
Sun 06:18:03 AM 34.4589 -116.3880 239° Southwest 470 541 26,800 -2,000 Descending Los Angeles Center
Sun 06:19:03 AM 34.3917 -116.5240 241° Southwest 470 541 24,800 -1,700 Descending Los Angeles Center
Sun 06:20:03 AM 34.3286 -116.6590 240° Southwest 470 541 23,400 -1,100 Descending Los Angeles Center
Sun 06:21:03 AM 34.2653 -116.7900 240° Southwest 465 535 22,600 -1,100 Descending Los Angeles Center
Sun 06:22:03 AM 34.2019 -116.9200 237° Southwest 459 528 21,200 -1,600 Descending Los Angeles Center
Sun 06:23:03 AM 34.1322 -117.0520 239° Southwest 454 522 19,400 -1,274 Descending Los Angeles Center
Sun 06:23:56 AM 34.0833 -117.1500 253° West 411 473 18,800 -1,487 Descending Southern California TRACON
Sun 06:24:56 AM 34.0500 -117.2830 251° West 408 470 16,600 -2,083 Descending Southern California TRACON
Sun 06:25:57 AM 34.0167 -117.4000 270° West 357 411 14,600 -2,231 Descending Southern California TRACON
Sun 06:26:57 AM 34.0167 -117.5330 270° West 336 387 12,100 -2,100 Descending Southern California TRACON
Sun 06:27:57 AM 34.0167 -117.6330 261° West 315 362 10,400 -1,143 Descending Southern California TRACON
Sun 06:29:03 AM 34.0017 -117.7430 262° West 320 368 9,700 -1,048 Descending Los Angeles Center
Sun 06:30:03 AM 33.9900 -117.8400 264° West 307 353 8,200 -947 Descending Los Angeles Center
Sun 06:30:57 AM 33.9833 -117.9170 256° West 270 311 7,900 -789 Descending Southern California TRACON
Sun 06:31:57 AM 33.9667 -118.0000 270° West 268 308 6,700 -1,250 Descending Southern California TRACON
Sun 06:32:57 AM 33.9667 -118.1000 256° West 274 315 5,400 -1,488 Descending Southern California TRACON
Sun 06:33:58 AM 33.9500 -118.1830 268° West 268 308 3,700 13,619 Descending Southern California TRACON
Sun 06:35:03 AM 33.9475 -118.2800 264° West 266 306 34,000 -1,296 Climbing Los Angeles Center
Sun 06:36:03 AM 33.9422 -118.3370 263° West 225 259 1,000 -16,950 Descending Los Angeles Center
Sun 06:37:03 AM 33.9372 -118.3870 262° West 181 208 100 6,600 Descending Los Angeles Center
Sun 06:41:03 AM 33.9169 -118.5670 360° North 175 201 34,000 6,780 Climbing Los Angeles Center
Sun 06:42:03 AM 33.9169 -118.5670 360° North 175 201 34,000  Level Los Angeles Center

Login

Don't have an account? Register now (free) for customized features, flight alerts, and more!